createdAt,value
2017-12-08T00:02:17.165Z,62.45
2017-12-08T00:04:47.458Z,58.00
2017-12-08T00:07:15.914Z,65.07
2017-12-08T00:09:45.339Z,64.75
2017-12-08T00:12:14.412Z,54.63
2017-12-08T00:14:43.400Z,54.97
2017-12-08T00:17:12.481Z,53.20
2017-12-08T00:19:40.586Z,58.97
2017-12-08T00:22:10.226Z,59.38
2017-12-08T00:24:38.301Z,55.28
2017-12-08T00:27:08.409Z,61.03
2017-12-08T00:29:36.426Z,57.85
2017-12-08T00:32:05.273Z,72.03
2017-12-08T00:34:35.398Z,63.87
2017-12-08T00:37:04.997Z,61.37
2017-12-08T00:39:33.163Z,61.78
2017-12-08T00:42:03.601Z,57.53
2017-12-08T00:44:32.510Z,58.92
2017-12-08T00:47:02.712Z,60.83
2017-12-08T00:49:31.790Z,62.35
2017-12-08T00:51:59.987Z,58.78
2017-12-08T00:54:29.226Z,56.92
2017-12-08T00:56:58.612Z,65.65
2017-12-08T00:59:27.467Z,58.15
2017-12-08T01:01:56.562Z,57.08
2017-12-08T01:04:26.202Z,62.13
2017-12-08T01:06:54.408Z,67.75
2017-12-08T01:09:22.965Z,56.90
2017-12-08T01:11:51.872Z,60.03
2017-12-08T01:14:20.757Z,57.45
2017-12-08T01:16:48.980Z,65.78
2017-12-08T01:19:17.301Z,58.65
2017-12-08T01:21:46.381Z,52.20
2017-12-08T01:24:15.895Z,63.58
2017-12-08T01:26:44.664Z,64.70
2017-12-08T01:29:12.670Z,65.93
2017-12-08T01:31:40.680Z,75.57
2017-12-08T01:34:08.741Z,72.80
2017-12-08T01:36:37.038Z,70.03
2017-12-08T01:39:05.315Z,79.93
2017-12-08T01:41:34.090Z,68.60
2017-12-08T01:44:03.642Z,66.47
2017-12-08T01:46:32.556Z,81.07
2017-12-08T01:49:00.677Z,67.43
2017-12-08T01:51:29.413Z,73.90
2017-12-08T01:53:58.089Z,81.20
2017-12-08T01:56:26.201Z,80.22
2017-12-08T01:58:55.122Z,98.82
2017-12-08T02:01:24.005Z,81.18
2017-12-08T02:03:52.778Z,88.22
2017-12-08T02:06:21.338Z,78.03
2017-12-08T02:08:49.365Z,80.45
2017-12-08T02:11:17.608Z,85.22
2017-12-08T02:13:46.780Z,80.97
2017-12-08T02:16:14.929Z,80.03
2017-12-08T02:18:44.571Z,89.32
2017-12-08T02:21:12.605Z,86.60
2017-12-08T02:23:41.585Z,78.87
2017-12-08T02:26:10.521Z,89.53
2017-12-08T02:28:39.586Z,78.72
2017-12-08T02:31:08.394Z,80.45
2017-12-08T02:33:37.038Z,90.05
2017-12-08T02:36:06.081Z,90.55
2017-12-08T02:38:34.683Z,86.65
2017-12-08T02:41:03.175Z,85.00
2017-12-08T02:43:31.541Z,97.90
2017-12-08T02:46:01.040Z,113.25
2017-12-08T02:48:29.849Z,102.87
2017-12-08T02:50:58.562Z,113.15
2017-12-08T02:53:27.283Z,113.07
2017-12-08T02:55:57.157Z,114.22
2017-12-08T02:58:26.203Z,116.82
2017-12-08T03:00:54.403Z,102.30
2017-12-08T03:03:23.917Z,105.60
2017-12-08T03:05:52.106Z,129.02
2017-12-08T03:08:21.012Z,114.97
2017-12-08T03:10:50.893Z,117.50
2017-12-08T03:13:19.941Z,115.75
2017-12-08T03:15:49.018Z,110.57
2017-12-08T03:18:18.833Z,105.10
2017-12-08T03:20:48.890Z,124.10
2017-12-08T03:23:17.415Z,112.80
2017-12-08T03:25:45.477Z,125.85
2017-12-08T03:28:14.551Z,134.48
2017-12-08T03:30:42.680Z,119.95
2017-12-08T03:33:13.009Z,121.75
2017-12-08T03:35:41.223Z,120.68
2017-12-08T03:38:10.559Z,125.80
2017-12-08T03:40:39.441Z,112.55
2017-12-08T03:43:07.517Z,126.78
2017-12-08T03:45:35.736Z,136.13
2017-12-08T03:48:04.860Z,118.23
2017-12-08T03:50:33.044Z,123.10
2017-12-08T03:53:02.589Z,115.07
2017-12-08T03:55:31.456Z,123.90
2017-12-08T03:58:01.280Z,110.77
2017-12-08T04:00:29.355Z,112.93
2017-12-08T04:02:57.431Z,116.67
2017-12-08T04:05:26.227Z,114.15
2017-12-08T04:07:55.020Z,118.90
2017-12-08T04:10:23.085Z,112.65
2017-12-08T04:12:51.925Z,121.15
2017-12-08T04:15:19.956Z,106.80
2017-12-08T04:17:47.994Z,109.37
2017-12-08T04:20:17.489Z,118.47
2017-12-08T04:22:45.665Z,119.13
2017-12-08T04:25:14.945Z,119.15
2017-12-08T04:27:44.267Z,111.43
2017-12-08T04:30:12.621Z,114.83
2017-12-08T04:32:40.691Z,106.30
2017-12-08T04:35:08.815Z,127.33
2017-12-08T04:37:37.631Z,108.55
2017-12-08T04:40:05.710Z,118.80
2017-12-08T04:42:33.772Z,102.90
2017-12-08T04:45:01.834Z,114.85
2017-12-08T04:47:29.881Z,114.28
2017-12-08T04:49:58.077Z,111.95
2017-12-08T04:52:27.058Z,126.70
2017-12-08T04:54:55.838Z,117.55
2017-12-08T04:57:24.014Z,130.95
2017-12-08T04:59:53.937Z,116.50
2017-12-08T05:02:22.890Z,133.87
2017-12-08T05:04:50.996Z,118.97
2017-12-08T05:07:20.561Z,108.72
2017-12-08T05:09:48.688Z,121.23
2017-12-08T05:12:17.509Z,116.30
2017-12-08T05:14:46.335Z,111.72
2017-12-08T05:17:14.372Z,114.07
2017-12-08T05:19:42.431Z,119.47
2017-12-08T05:22:10.517Z,107.28
2017-12-08T05:24:38.628Z,115.68
2017-12-08T05:27:06.676Z,104.63
2017-12-08T05:29:34.723Z,102.90
2017-12-08T05:32:02.808Z,96.43
2017-12-08T05:34:30.877Z,102.70
2017-12-08T05:36:58.953Z,106.55
2017-12-08T05:39:26.979Z,114.50
2017-12-08T05:41:55.814Z,107.37
2017-12-08T05:44:23.849Z,127.32
2017-12-08T05:46:52.617Z,121.62
2017-12-08T05:49:21.452Z,115.35
2017-12-08T05:51:49.473Z,127.47
2017-12-08T05:54:17.529Z,121.32
2017-12-08T05:56:45.594Z,111.97
2017-12-08T05:59:13.683Z,120.87
2017-12-08T06:01:41.757Z,119.55
2017-12-08T06:04:09.778Z,104.87
2017-12-08T06:06:37.796Z,106.63
2017-12-08T06:09:05.841Z,108.00
2017-12-08T06:11:33.861Z,111.57
2017-12-08T06:14:02.645Z,111.88
2017-12-08T06:16:31.461Z,107.70
2017-12-08T06:18:59.514Z,100.80
2017-12-08T06:21:28.313Z,104.38
2017-12-08T06:23:56.342Z,114.47
2017-12-08T06:26:24.368Z,113.60
2017-12-08T06:28:52.369Z,110.90
2017-12-08T06:31:20.393Z,112.03
2017-12-08T06:33:48.422Z,102.85
2017-12-08T06:36:16.422Z,98.07
2017-12-08T06:38:45.195Z,117.78
2017-12-08T06:41:13.233Z,105.82
2017-12-08T06:43:41.238Z,110.47
2017-12-08T06:46:09.265Z,102.97
2017-12-08T06:48:37.297Z,104.80
2017-12-08T06:51:06.113Z,115.05
2017-12-08T06:53:34.103Z,100.70
2017-12-08T06:56:02.116Z,109.10
2017-12-08T06:58:30.912Z,116.80
2017-12-08T07:00:59.709Z,285.95
2017-12-08T07:03:27.751Z,170.73
2017-12-08T07:05:55.793Z,126.38
2017-12-08T07:08:24.012Z,115.93
2017-12-08T07:10:52.832Z,138.95
2017-12-08T07:13:21.144Z,180.10
2017-12-08T07:15:50.093Z,155.30
2017-12-08T07:18:18.117Z,131.45
2017-12-08T07:20:46.141Z,126.62
2017-12-08T07:23:14.209Z,116.90
2017-12-08T07:25:42.238Z,131.05
2017-12-08T07:28:12.907Z,128.98
2017-12-08T07:30:41.219Z,151.27
2017-12-08T07:33:11.878Z,137.45
2017-12-08T07:35:40.810Z,125.53
2017-12-08T07:38:08.824Z,111.97
2017-12-08T07:40:36.838Z,123.70
2017-12-08T07:43:05.626Z,121.47
2017-12-08T07:45:34.450Z,125.10
2017-12-08T07:48:02.502Z,129.55
2017-12-08T07:50:30.568Z,135.43
2017-12-08T07:52:58.612Z,131.60
2017-12-08T07:55:26.625Z,129.05
2017-12-08T07:57:54.652Z,135.45
2017-12-08T08:00:22.678Z,126.50
2017-12-08T08:02:50.680Z,124.05
2017-12-08T08:05:18.717Z,135.93
2017-12-08T08:07:46.785Z,139.93
2017-12-08T08:10:15.108Z,137.30
2017-12-08T08:12:43.141Z,125.57
2017-12-08T08:15:11.240Z,145.15
2017-12-08T08:17:39.336Z,127.38
2017-12-08T08:20:07.385Z,131.80
2017-12-08T08:22:35.854Z,134.43
2017-12-08T08:25:04.061Z,140.73
2017-12-08T08:27:32.182Z,136.25
2017-12-08T08:30:01.246Z,143.60
2017-12-08T08:32:30.139Z,183.25
2017-12-08T08:34:58.926Z,173.23
2017-12-08T08:37:27.705Z,148.75
2017-12-08T08:39:56.537Z,124.50
2017-12-08T08:42:25.493Z,150.05
2017-12-08T08:44:54.309Z,143.18
2017-12-08T08:47:22.474Z,136.48
2017-12-08T08:49:50.828Z,137.02
2017-12-08T08:52:19.874Z,135.12
2017-12-08T08:54:49.887Z,144.73
2017-12-08T08:57:18.017Z,146.80
2017-12-08T08:59:47.793Z,133.12
2017-12-08T09:02:15.843Z,136.40
2017-12-08T09:04:44.937Z,144.25
2017-12-08T09:07:13.998Z,141.57
2017-12-08T09:09:44.422Z,143.73
2017-12-08T09:12:14.045Z,143.98
2017-12-08T09:14:42.166Z,139.15
2017-12-08T09:17:10.263Z,152.20
2017-12-08T09:19:38.642Z,140.50
2017-12-08T09:22:07.766Z,141.77
2017-12-08T09:24:36.077Z,149.82
2017-12-08T09:27:04.921Z,134.20
2017-12-08T09:29:33.829Z,145.68
2017-12-08T09:32:01.869Z,141.65
2017-12-08T09:34:31.578Z,154.73
2017-12-08T09:37:00.426Z,146.32
2017-12-08T09:39:28.442Z,142.60
2017-12-08T09:41:57.531Z,142.98
2017-12-08T09:44:25.932Z,148.82
2017-12-08T09:46:54.665Z,155.18
2017-12-08T09:49:23.314Z,156.18
2017-12-08T09:51:51.351Z,182.65
2017-12-08T09:54:19.753Z,154.75
2017-12-08T09:56:48.538Z,150.27
2017-12-08T09:59:18.284Z,154.90
2017-12-08T10:01:46.397Z,154.48
2017-12-08T10:04:14.970Z,164.50
2017-12-08T10:06:43.762Z,158.57
2017-12-08T10:09:11.991Z,164.68
2017-12-08T10:11:40.003Z,189.85
2017-12-08T10:14:08.137Z,174.67
2017-12-08T10:16:36.438Z,167.77
2017-12-08T10:19:04.598Z,187.10
2017-12-08T10:21:32.683Z,165.12
2017-12-08T10:24:00.856Z,178.43
2017-12-08T10:26:28.886Z,177.32
2017-12-08T10:28:56.935Z,171.87
2017-12-08T10:31:25.006Z,175.27
2017-12-08T10:33:53.073Z,176.57
2017-12-08T10:36:21.144Z,185.88
2017-12-08T10:38:49.209Z,174.23
2017-12-08T10:41:17.276Z,172.90
2017-12-08T10:43:45.456Z,176.60
2017-12-08T10:46:13.485Z,181.40
2017-12-08T10:48:41.529Z,174.10
2017-12-08T10:51:10.741Z,189.10
2017-12-08T10:53:38.830Z,190.23
2017-12-08T10:56:06.942Z,177.43
2017-12-08T10:58:34.981Z,175.37
2017-12-08T11:01:03.094Z,172.57
2017-12-08T11:03:31.146Z,181.83
2017-12-08T11:05:59.209Z,186.82
2017-12-08T11:08:27.233Z,174.33
2017-12-08T11:10:55.344Z,191.70
2017-12-08T11:13:23.358Z,182.50
2017-12-08T11:15:51.437Z,186.70
2017-12-08T11:18:20.243Z,175.15
2017-12-08T11:20:48.270Z,172.70
2017-12-08T11:23:16.326Z,175.63
2017-12-08T11:25:44.801Z,188.40
2017-12-08T11:28:12.940Z,178.20
2017-12-08T11:30:41.679Z,188.00
2017-12-08T11:33:10.722Z,173.27
2017-12-08T11:35:38.748Z,196.00
2017-12-08T11:38:06.793Z,181.10
2017-12-08T11:40:34.809Z,205.23
2017-12-08T11:43:02.865Z,195.80
2017-12-08T11:45:30.894Z,188.60
2017-12-08T11:47:58.977Z,199.07
2017-12-08T11:50:26.999Z,205.67
2017-12-08T11:52:55.033Z,184.40
2017-12-08T11:55:23.065Z,185.40
2017-12-08T11:57:51.774Z,190.70
2017-12-08T12:00:19.808Z,178.17
2017-12-08T12:02:48.993Z,176.77
2017-12-08T12:05:17.001Z,182.77
2017-12-08T12:07:45.006Z,183.50
2017-12-08T12:10:13.080Z,183.10
2017-12-08T12:12:41.091Z,180.80
2017-12-08T12:15:09.872Z,177.13
2017-12-08T12:17:38.662Z,227.97
2017-12-08T12:20:07.452Z,182.30
2017-12-08T12:22:36.414Z,193.20
2017-12-08T12:25:04.429Z,170.53
2017-12-08T12:27:32.452Z,230.33
2017-12-08T12:30:00.501Z,209.47
2017-12-08T12:32:28.536Z,186.10
2017-12-08T12:34:57.358Z,193.23
2017-12-08T12:37:25.349Z,233.33
2017-12-08T12:39:53.352Z,190.70
2017-12-08T12:42:22.148Z,183.73
2017-12-08T12:44:50.206Z,330.40
2017-12-08T12:47:18.227Z,209.43
2017-12-08T12:49:46.310Z,210.70
2017-12-08T12:52:14.415Z,233.57
2017-12-08T12:54:42.431Z,193.67
2017-12-08T12:57:10.433Z,193.47
2017-12-08T12:59:38.438Z,185.43
2017-12-08T13:02:07.224Z,212.13
2017-12-08T13:04:35.253Z,210.43
2017-12-08T13:07:03.261Z,201.90
2017-12-08T13:09:31.269Z,202.20
2017-12-08T13:11:59.309Z,191.50
2017-12-08T13:14:28.095Z,201.23
2017-12-08T13:16:56.881Z,250.70
2017-12-08T13:19:24.905Z,230.07
2017-12-08T13:21:52.945Z,236.07
2017-12-08T13:24:21.775Z,200.57
2017-12-08T13:26:49.804Z,194.97
2017-12-08T13:29:17.813Z,184.60
2017-12-08T13:31:45.825Z,199.97
2017-12-08T13:34:13.864Z,193.63
2017-12-08T13:36:41.878Z,202.37
2017-12-08T13:39:10.657Z,188.07
2017-12-08T13:41:39.446Z,205.47
2017-12-08T13:44:09.142Z,190.00
2017-12-08T13:46:37.140Z,201.17
2017-12-08T13:49:05.938Z,214.07
2017-12-08T13:51:33.972Z,207.63
2017-12-08T13:54:13.681Z,200.70
2017-12-08T13:56:52.301Z,195.50
2017-12-08T13:59:20.327Z,194.73
2017-12-08T14:01:49.144Z,208.53
2017-12-08T14:04:17.229Z,230.00
2017-12-08T14:06:45.352Z,210.23
2017-12-08T14:09:14.985Z,218.63
2017-12-08T14:11:43.623Z,224.70
2017-12-08T14:14:11.681Z,226.33
2017-12-08T14:16:39.840Z,193.97
2017-12-08T14:19:08.170Z,193.50
2017-12-08T14:21:36.967Z,193.43
2017-12-08T14:24:06.159Z,190.10
2017-12-08T14:26:35.106Z,200.00
2017-12-08T14:29:03.159Z,178.90
2017-12-08T14:31:31.201Z,193.80
2017-12-08T14:34:00.051Z,177.47
2017-12-08T14:36:28.047Z,179.70
2017-12-08T14:38:56.166Z,185.43
2017-12-08T14:41:24.185Z,187.33
2017-12-08T14:43:53.122Z,195.03
2017-12-08T14:46:21.334Z,181.50
2017-12-08T14:48:49.428Z,190.70
2017-12-08T14:51:17.460Z,214.97
2017-12-08T14:53:46.445Z,196.57
2017-12-08T14:56:14.538Z,201.67
2017-12-08T14:58:42.621Z,218.17
2017-12-08T15:01:10.734Z,224.67
2017-12-08T15:03:39.500Z,206.20
2017-12-08T15:06:07.502Z,204.60
2017-12-08T15:08:35.589Z,205.87
2017-12-08T15:11:04.306Z,208.13
2017-12-08T15:13:32.354Z,216.57
2017-12-08T15:16:00.465Z,214.37
2017-12-08T15:18:28.525Z,219.60
2017-12-08T15:20:56.550Z,200.13
2017-12-08T15:23:24.568Z,205.47
2017-12-08T15:25:52.649Z,189.17
2017-12-08T15:28:20.674Z,209.47
2017-12-08T15:30:48.718Z,202.53
2017-12-08T15:33:17.563Z,212.80
2017-12-08T15:35:45.574Z,192.03
2017-12-08T15:38:14.428Z,200.65
2017-12-08T15:40:42.466Z,231.77
2017-12-08T15:43:10.569Z,223.33
2017-12-08T15:45:38.640Z,192.57
2017-12-08T15:48:07.533Z,197.90
2017-12-08T15:50:35.676Z,195.03
2017-12-08T15:53:04.412Z,212.47
2017-12-08T15:55:32.519Z,201.57
2017-12-08T15:58:01.365Z,189.97
2017-12-08T16:00:29.506Z,210.00
2017-12-08T16:02:57.578Z,201.20
2017-12-08T16:05:25.652Z,218.23
2017-12-08T16:07:53.655Z,214.50
2017-12-08T16:10:21.826Z,199.73
2017-12-08T16:12:51.630Z,200.30
2017-12-08T16:15:20.454Z,206.45
2017-12-08T16:17:49.266Z,199.53
2017-12-08T16:20:18.165Z,189.43
2017-12-08T16:22:47.082Z,204.83
2017-12-08T16:25:15.852Z,214.30
2017-12-08T16:27:43.974Z,219.23
2017-12-08T16:30:12.058Z,193.50
2017-12-08T16:32:40.143Z,209.80
2017-12-08T16:35:08.212Z,210.63
2017-12-08T16:37:36.248Z,205.07
2017-12-08T16:40:04.316Z,190.05
2017-12-08T16:42:32.360Z,214.55
2017-12-08T16:45:00.401Z,199.10
2017-12-08T16:47:28.450Z,186.98
2017-12-08T16:49:57.240Z,202.50
2017-12-08T16:52:26.025Z,215.55
2017-12-08T16:54:54.830Z,206.07
2017-12-08T16:57:23.625Z,198.43
2017-12-08T16:59:51.618Z,204.00
2017-12-08T17:02:19.690Z,210.50
2017-12-08T17:04:47.725Z,215.80
2017-12-08T17:07:16.554Z,208.80
2017-12-08T17:09:44.594Z,193.35
2017-12-08T17:12:13.386Z,194.73
2017-12-08T17:14:41.425Z,201.87
2017-12-08T17:17:09.537Z,201.95
2017-12-08T17:19:37.557Z,214.80
2017-12-08T17:22:05.757Z,203.32
2017-12-08T17:24:33.839Z,200.03
2017-12-08T17:27:02.770Z,194.15
2017-12-08T17:29:30.804Z,210.73
2017-12-08T17:31:59.647Z,205.57
2017-12-08T17:34:27.770Z,221.93
2017-12-08T17:36:55.808Z,201.40
2017-12-08T17:39:23.803Z,195.52
2017-12-08T17:41:52.569Z,188.98
2017-12-08T17:44:20.592Z,196.43
2017-12-08T17:46:48.638Z,212.02
2017-12-08T17:49:17.435Z,208.13
2017-12-08T17:51:46.209Z,224.10
2017-12-08T17:54:15.042Z,212.53
2017-12-08T17:56:43.101Z,193.77
2017-12-08T17:59:11.157Z,233.50
2017-12-08T18:01:39.208Z,196.07
2017-12-08T18:04:07.998Z,206.93
2017-12-08T18:06:36.941Z,211.15
2017-12-08T18:09:05.062Z,205.35
2017-12-08T18:11:33.170Z,196.15
2017-12-08T18:14:01.220Z,196.90
2017-12-08T18:16:30.026Z,192.60
2017-12-08T18:18:58.156Z,194.55
2017-12-08T18:21:26.209Z,202.43
2017-12-08T18:23:54.262Z,198.90
2017-12-08T18:26:22.304Z,179.82
2017-12-08T18:28:50.369Z,176.87
2017-12-08T18:31:19.309Z,177.68
2017-12-08T18:33:48.372Z,165.30
2017-12-08T18:36:16.499Z,165.93
2017-12-08T18:38:44.555Z,185.90
2017-12-08T18:41:12.607Z,163.57
2017-12-08T18:43:40.712Z,184.77
2017-12-08T18:46:08.805Z,186.70
2017-12-08T18:48:38.669Z,190.30
2017-12-08T18:51:06.811Z,192.75
2017-12-08T18:53:35.203Z,179.70
2017-12-08T18:56:03.256Z,188.52
2017-12-08T18:58:31.363Z,375.17
2017-12-08T19:01:00.293Z,203.88
2017-12-08T19:03:28.361Z,191.98
2017-12-08T19:05:56.449Z,241.65
2017-12-08T19:08:25.254Z,218.12
2017-12-08T19:10:53.285Z,227.77
2017-12-08T19:13:22.205Z,203.13
2017-12-08T19:15:50.997Z,201.93
2017-12-08T19:18:19.853Z,226.77
2017-12-08T19:20:47.870Z,197.77
2017-12-08T19:23:15.916Z,200.20
2017-12-08T19:25:44.857Z,208.75
2017-12-08T19:28:13.169Z,195.98
2017-12-08T19:30:41.485Z,196.68
2017-12-08T19:33:09.961Z,202.73
2017-12-08T19:35:38.861Z,209.27
2017-12-08T19:38:07.822Z,218.85
2017-12-08T19:40:36.154Z,219.30
2017-12-08T19:43:04.986Z,250.60
2017-12-08T19:45:33.874Z,259.62
2017-12-08T19:48:02.032Z,277.40
2017-12-08T19:50:30.078Z,254.38
2017-12-08T19:52:59.159Z,273.10
2017-12-08T19:55:27.307Z,267.92
2017-12-08T19:57:56.073Z,262.23
2017-12-08T20:00:24.422Z,288.05
2017-12-08T20:02:52.901Z,252.95
2017-12-08T20:05:21.918Z,278.88
2017-12-08T20:07:49.961Z,253.90
2017-12-08T20:10:18.011Z,266.95
2017-12-08T20:12:46.028Z,240.45
2017-12-08T20:15:14.993Z,244.35
2017-12-08T20:17:43.078Z,245.80
2017-12-08T20:20:11.194Z,230.70
2017-12-08T20:22:40.050Z,242.50
2017-12-08T20:25:08.145Z,223.90
2017-12-08T20:27:37.074Z,239.50
2017-12-08T20:30:05.990Z,261.05
2017-12-08T20:32:34.020Z,211.77
2017-12-08T20:35:02.854Z,208.68
2017-12-08T20:37:30.976Z,224.73
2017-12-08T20:40:00.296Z,214.18
2017-12-08T20:42:28.768Z,213.30
2017-12-08T20:44:57.540Z,208.00
2017-12-08T20:47:25.837Z,203.20
2017-12-08T20:49:54.623Z,228.32
2017-12-08T20:52:23.786Z,228.85
2017-12-08T20:54:52.426Z,227.43
2017-12-08T20:57:20.449Z,213.23
2017-12-08T20:59:48.506Z,213.30
2017-12-08T21:02:16.566Z,220.68
2017-12-08T21:04:44.607Z,218.12
2017-12-08T21:07:12.625Z,217.30
2017-12-08T21:09:40.639Z,224.50
2017-12-08T21:12:08.733Z,229.60
2017-12-08T21:14:36.750Z,236.37
2017-12-08T21:17:04.796Z,235.80
2017-12-08T21:19:32.829Z,263.58
2017-12-08T21:22:00.928Z,231.45
2017-12-08T21:24:28.978Z,263.00
2017-12-08T21:26:57.083Z,245.32
2017-12-08T21:29:25.102Z,256.67
2017-12-08T21:31:53.916Z,262.42
2017-12-08T21:34:21.926Z,260.25
2017-12-08T21:36:49.972Z,232.90
2017-12-08T21:39:17.976Z,251.02
2017-12-08T21:41:45.998Z,232.48
2017-12-08T21:44:14.017Z,256.40
2017-12-08T21:46:42.044Z,257.30
2017-12-08T21:49:10.060Z,247.23
2017-12-08T21:51:38.061Z,254.57
2017-12-08T21:54:06.083Z,242.62
2017-12-08T21:56:34.117Z,232.20
2017-12-08T21:59:02.139Z,224.88
2017-12-08T22:01:30.654Z,251.45
2017-12-08T22:03:58.689Z,216.40
2017-12-08T22:06:26.766Z,223.93
2017-12-08T22:08:54.787Z,225.02
2017-12-08T22:11:22.825Z,225.95
2017-12-08T22:13:52.142Z,213.25
2017-12-08T22:16:21.052Z,227.90
2017-12-08T22:18:49.124Z,191.65
2017-12-08T22:21:17.157Z,196.68
2017-12-08T22:23:45.987Z,226.68
2017-12-08T22:26:14.074Z,187.07
2017-12-08T22:28:42.104Z,180.52
2017-12-08T22:31:10.974Z,186.52
2017-12-08T22:33:39.031Z,194.68
2017-12-08T22:36:07.093Z,197.43
2017-12-08T22:38:35.158Z,191.43
2017-12-08T22:41:03.245Z,175.50
2017-12-08T22:43:31.290Z,181.48
2017-12-08T22:45:59.332Z,150.62
2017-12-08T22:48:27.385Z,162.75
2017-12-08T22:50:56.231Z,159.10
2017-12-08T22:53:24.285Z,161.70
2017-12-08T22:55:52.313Z,165.40
2017-12-08T22:58:21.117Z,160.70
2017-12-08T23:00:49.130Z,162.77
2017-12-08T23:03:17.177Z,161.35
2017-12-08T23:05:45.264Z,162.65
2017-12-08T23:08:13.327Z,159.05
2017-12-08T23:10:41.377Z,165.80
2017-12-08T23:13:09.376Z,162.95
2017-12-08T23:15:37.410Z,152.68
2017-12-08T23:18:06.202Z,154.65
2017-12-08T23:20:34.981Z,154.20
2017-12-08T23:23:03.751Z,143.25
2017-12-08T23:25:31.777Z,149.65
2017-12-08T23:27:59.814Z,145.62
2017-12-08T23:30:28.616Z,160.30
2017-12-08T23:32:56.625Z,138.40
2017-12-08T23:35:24.652Z,135.57
2017-12-08T23:37:52.649Z,150.95
2017-12-08T23:40:20.676Z,137.17
2017-12-08T23:42:49.456Z,132.95
2017-12-08T23:45:17.457Z,129.95
2017-12-08T23:47:45.489Z,147.25
2017-12-08T23:50:13.494Z,127.93
2017-12-08T23:52:41.501Z,135.60
2017-12-08T23:55:09.558Z,130.35
2017-12-08T23:57:37.568Z,131.07
